sensor_id;sensor_type;location;lat;lon;timestamp;temperature;humidity
4584;DHT22;2304;47.606;12.186;2023-08-01T00:04:18;20.90;68.40
4584;DHT22;2304;47.606;12.186;2023-08-01T00:09:20;20.90;67.50
4584;DHT22;2304;47.606;12.186;2023-08-01T00:14:22;20.80;67.40
4584;DHT22;2304;47.606;12.186;2023-08-01T00:19:26;20.90;67.40
4584;DHT22;2304;47.606;12.186;2023-08-01T00:24:28;20.90;67.70
4584;DHT22;2304;47.606;12.186;2023-08-01T00:29:30;20.80;68.30
4584;DHT22;2304;47.606;12.186;2023-08-01T00:34:33;20.80;68.90
4584;DHT22;2304;47.606;12.186;2023-08-01T00:39:35;20.70;68.00
4584;DHT22;2304;47.606;12.186;2023-08-01T00:44:37;20.70;68.20
4584;DHT22;2304;47.606;12.186;2023-08-01T00:49:40;20.60;69.10
4584;DHT22;2304;47.606;12.186;2023-08-01T00:54:42;20.50;70.80
4584;DHT22;2304;47.606;12.186;2023-08-01T00:59:44;20.50;71.30
4584;DHT22;2304;47.606;12.186;2023-08-01T01:04:47;20.40;72.30
4584;DHT22;2304;47.606;12.186;2023-08-01T01:09:50;20.30;73.20
4584;DHT22;2304;47.606;12.186;2023-08-01T01:14:52;20.30;73.70
4584;DHT22;2304;47.606;12.186;2023-08-01T01:19:55;20.30;73.70
4584;DHT22;2304;47.606;12.186;2023-08-01T01:25:00;20.30;75.10
4584;DHT22;2304;47.606;12.186;2023-08-01T01:30:04;20.00;77.50
4584;DHT22;2304;47.606;12.186;2023-08-01T01:35:07;19.70;78.60
4584;DHT22;2304;47.606;12.186;2023-08-01T01:40:11;19.60;80.80
4584;DHT22;2304;47.606;12.186;2023-08-01T01:45:13;19.60;81.70
4584;DHT22;2304;47.606;12.186;2023-08-01T01:50:15;19.50;82.80
4584;DHT22;2304;47.606;12.186;2023-08-01T01:55:18;19.50;82.80
4584;DHT22;2304;47.606;12.186;2023-08-01T02:00:20;19.40;83.60
4584;DHT22;2304;47.606;12.186;2023-08-01T02:05:22;19.30;84.60
4584;DHT22;2304;47.606;12.186;2023-08-01T02:10:25;19.40;82.10
4584;DHT22;2304;47.606;12.186;2023-08-01T02:15:27;19.40;82.40
4584;DHT22;2304;47.606;12.186;2023-08-01T02:20:29;19.50;81.70
4584;DHT22;2304;47.606;12.186;2023-08-01T02:25:32;19.50;82.30
4584;DHT22;2304;47.606;12.186;2023-08-01T02:30:34;19.40;82.80
4584;DHT22;2304;47.606;12.186;2023-08-01T02:35:36;19.40;83.00
4584;DHT22;2304;47.606;12.186;2023-08-01T02:40:39;19.30;84.70
4584;DHT22;2304;47.606;12.186;2023-08-01T02:45:41;19.20;85.90
4584;DHT22;2304;47.606;12.186;2023-08-01T02:50:43;19.20;86.70
4584;DHT22;2304;47.606;12.186;2023-08-01T02:55:47;19.20;87.00
4584;DHT22;2304;47.606;12.186;2023-08-01T03:00:48;19.30;86.10
4584;DHT22;2304;47.606;12.186;2023-08-01T03:05:51;19.40;85.50
4584;DHT22;2304;47.606;12.186;2023-08-01T03:10:55;19.40;84.90
4584;DHT22;2304;47.606;12.186;2023-08-01T03:15:57;19.30;85.30
4584;DHT22;2304;47.606;12.186;2023-08-01T03:20:58;19.30;85.90
4584;DHT22;2304;47.606;12.186;2023-08-01T03:26:02;19.20;87.10
4584;DHT22;2304;47.606;12.186;2023-08-01T03:31:04;19.20;87.00
4584;DHT22;2304;47.606;12.186;2023-08-01T03:36:05;19.20;85.60
4584;DHT22;2304;47.606;12.186;2023-08-01T03:41:09;19.30;85.30
4584;DHT22;2304;47.606;12.186;2023-08-01T03:46:11;19.20;85.60
4584;DHT22;2304;47.606;12.186;2023-08-01T03:51:12;19.30;85.70
4584;DHT22;2304;47.606;12.186;2023-08-01T03:56:17;19.20;85.70
4584;DHT22;2304;47.606;12.186;2023-08-01T04:01:19;19.20;86.00
4584;DHT22;2304;47.606;12.186;2023-08-01T04:06:21;19.20;85.50
4584;DHT22;2304;47.606;12.186;2023-08-01T04:11:24;19.20;85.60
4584;DHT22;2304;47.606;12.186;2023-08-01T04:16:26;19.20;84.70
4584;DHT22;2304;47.606;12.186;2023-08-01T04:21:28;19.20;86.20
4584;DHT22;2304;47.606;12.186;2023-08-01T04:26:31;19.20;86.30
4584;DHT22;2304;47.606;12.186;2023-08-01T04:31:33;19.20;84.70
4584;DHT22;2304;47.606;12.186;2023-08-01T04:36:35;19.20;84.30
4584;DHT22;2304;47.606;12.186;2023-08-01T04:41:38;19.00;86.50
4584;DHT22;2304;47.606;12.186;2023-08-01T04:46:40;19.00;86.30
4584;DHT22;2304;47.606;12.186;2023-08-01T04:51:42;19.00;87.90
4584;DHT22;2304;47.606;12.186;2023-08-01T04:56:45;19.10;87.60
4584;DHT22;2304;47.606;12.186;2023-08-01T05:01:47;18.90;89.00
4584;DHT22;2304;47.606;12.186;2023-08-01T05:06:49;18.90;88.00
4584;DHT22;2304;47.606;12.186;2023-08-01T05:11:52;18.80;89.40
4584;DHT22;2304;47.606;12.186;2023-08-01T05:16:54;18.70;89.30
4584;DHT22;2304;47.606;12.186;2023-08-01T05:21:56;18.80;89.10
4584;DHT22;2304;47.606;12.186;2023-08-01T05:26:59;18.80;88.30
4584;DHT22;2304;47.606;12.186;2023-08-01T05:32:02;19.00;88.00
4584;DHT22;2304;47.606;12.186;2023-08-01T05:37:04;19.00;87.30
4584;DHT22;2304;47.606;12.186;2023-08-01T05:42:08;19.00;87.30
4584;DHT22;2304;47.606;12.186;2023-08-01T05:47:10;19.00;87.40
4584;DHT22;2304;47.606;12.186;2023-08-01T05:52:11;19.10;87.10
4584;DHT22;2304;47.606;12.186;2023-08-01T05:57:15;19.00;88.00
4584;DHT22;2304;47.606;12.186;2023-08-01T06:02:17;19.10;88.10
4584;DHT22;2304;47.606;12.186;2023-08-01T06:07:19;19.10;88.20
4584;DHT22;2304;47.606;12.186;2023-08-01T06:12:24;19.10;88.20
4584;DHT22;2304;47.606;12.186;2023-08-01T06:17:26;19.10;88.30
4584;DHT22;2304;47.606;12.186;2023-08-01T06:22:28;19.20;88.30
4584;DHT22;2304;47.606;12.186;2023-08-01T06:27:31;19.20;88.50
4584;DHT22;2304;47.606;12.186;2023-08-01T06:32:33;19.10;88.80
4584;DHT22;2304;47.606;12.186;2023-08-01T06:37:35;19.10;89.20
4584;DHT22;2304;47.606;12.186;2023-08-01T06:42:38;19.10;88.80
4584;DHT22;2304;47.606;12.186;2023-08-01T06:47:41;19.30;88.10
4584;DHT22;2304;47.606;12.186;2023-08-01T06:52:43;19.20;88.30
4584;DHT22;2304;47.606;12.186;2023-08-01T06:57:46;19.30;87.60
4584;DHT22;2304;47.606;12.186;2023-08-01T07:02:48;19.30;88.10
4584;DHT22;2304;47.606;12.186;2023-08-01T07:07:50;19.20;86.70
4584;DHT22;2304;47.606;12.186;2023-08-01T07:12:54;19.20;87.50
4584;DHT22;2304;47.606;12.186;2023-08-01T07:17:56;19.20;87.50
4584;DHT22;2304;47.606;12.186;2023-08-01T07:22:57;19.20;87.30
4584;DHT22;2304;47.606;12.186;2023-08-01T07:28:01;19.10;87.20
4584;DHT22;2304;47.606;12.186;2023-08-01T07:33:04;19.00;88.00
4584;DHT22;2304;47.606;12.186;2023-08-01T07:38:06;18.90;88.60
4584;DHT22;2304;47.606;12.186;2023-08-01T07:43:09;18.90;88.60
4584;DHT22;2304;47.606;12.186;2023-08-01T07:48:11;18.90;89.70
4584;DHT22;2304;47.606;12.186;2023-08-01T07:53:12;19.00;89.80
4584;DHT22;2304;47.606;12.186;2023-08-01T07:58:16;18.80;88.20
4584;DHT22;2304;47.606;12.186;2023-08-01T08:03:18;18.80;88.60
4584;DHT22;2304;47.606;12.186;2023-08-01T08:08:22;18.80;88.70
4584;DHT22;2304;47.606;12.186;2023-08-01T08:13:25;18.80;88.70
4584;DHT22;2304;47.606;12.186;2023-08-01T08:18:27;18.90;88.80
4584;DHT22;2304;47.606;12.186;2023-08-01T08:23:29;18.90;89.30
4584;DHT22;2304;47.606;12.186;2023-08-01T08:28:33;19.00;89.10
4584;DHT22;2304;47.606;12.186;2023-08-01T08:33:35;19.00;88.10
4584;DHT22;2304;47.606;12.186;2023-08-01T08:38:37;19.10;88.80
4584;DHT22;2304;47.606;12.186;2023-08-01T08:43:42;19.30;89.20
4584;DHT22;2304;47.606;12.186;2023-08-01T08:48:44;19.40;88.20
4584;DHT22;2304;47.606;12.186;2023-08-01T08:53:47;19.40;86.40
4584;DHT22;2304;47.606;12.186;2023-08-01T08:58:54;19.40;85.70
4584;DHT22;2304;47.606;12.186;2023-08-01T09:03:56;19.60;86.80
4584;DHT22;2304;47.606;12.186;2023-08-01T09:09:02;19.70;88.20
4584;DHT22;2304;47.606;12.186;2023-08-01T09:14:06;19.80;88.10
4584;DHT22;2304;47.606;12.186;2023-08-01T09:19:09;19.80;86.20
4584;DHT22;2304;47.606;12.186;2023-08-01T09:24:15;19.70;85.60
4584;DHT22;2304;47.606;12.186;2023-08-01T09:29:20;19.80;85.80
4584;DHT22;2304;47.606;12.186;2023-08-01T09:34:23;19.80;84.80
4584;DHT22;2304;47.606;12.186;2023-08-01T09:39:26;19.70;85.30
4584;DHT22;2304;47.606;12.186;2023-08-01T09:44:29;19.80;84.80
4584;DHT22;2304;47.606;12.186;2023-08-01T09:49:31;19.70;85.30
4584;DHT22;2304;47.606;12.186;2023-08-01T09:54:34;19.60;85.90
4584;DHT22;2304;47.606;12.186;2023-08-01T09:59:37;19.60;86.90
4584;DHT22;2304;47.606;12.186;2023-08-01T10:04:39;19.60;88.20
4584;DHT22;2304;47.606;12.186;2023-08-01T10:09:41;19.80;88.50
4584;DHT22;2304;47.606;12.186;2023-08-01T10:14:45;19.90;88.00
4584;DHT22;2304;47.606;12.186;2023-08-01T10:19:49;19.90;87.20
4584;DHT22;2304;47.606;12.186;2023-08-01T10:24:52;20.00;85.20
4584;DHT22;2304;47.606;12.186;2023-08-01T10:30:08;20.00;85.30
4584;DHT22;2304;47.606;12.186;2023-08-01T10:35:10;20.10;85.90
4584;DHT22;2304;47.606;12.186;2023-08-01T10:40:14;20.10;86.40
4584;DHT22;2304;47.606;12.186;2023-08-01T10:45:24;20.10;87.70
4584;DHT22;2304;47.606;12.186;2023-08-01T10:50:27;20.10;86.50
4584;DHT22;2304;47.606;12.186;2023-08-01T10:55:39;20.10;85.10
4584;DHT22;2304;47.606;12.186;2023-08-01T11:00:43;20.10;84.60
4584;DHT22;2304;47.606;12.186;2023-08-01T11:05:44;20.10;85.10
4584;DHT22;2304;47.606;12.186;2023-08-01T11:10:58;20.30;85.90
4584;DHT22;2304;47.606;12.186;2023-08-01T11:16:03;20.40;85.60
4584;DHT22;2304;47.606;12.186;2023-08-01T11:21:05;20.40;83.30
4584;DHT22;2304;47.606;12.186;2023-08-01T11:26:07;20.50;84.20
4584;DHT22;2304;47.606;12.186;2023-08-01T11:31:14;20.60;83.80
4584;DHT22;2304;47.606;12.186;2023-08-01T11:36:16;20.40;82.40
4584;DHT22;2304;47.606;12.186;2023-08-01T11:41:18;20.30;83.40
4584;DHT22;2304;47.606;12.186;2023-08-01T11:46:22;20.20;84.20
4584;DHT22;2304;47.606;12.186;2023-08-01T11:51:24;20.20;85.60
4584;DHT22;2304;47.606;12.186;2023-08-01T11:56:26;20.20;86.70
4584;DHT22;2304;47.606;12.186;2023-08-01T12:01:29;20.30;87.20
4584;DHT22;2304;47.606;12.186;2023-08-01T12:06:32;20.40;87.30
4584;DHT22;2304;47.606;12.186;2023-08-01T12:11:34;20.50;87.10
4584;DHT22;2304;47.606;12.186;2023-08-01T12:16:38;20.50;88.40
4584;DHT22;2304;47.606;12.186;2023-08-01T12:21:40;20.50;88.40
4584;DHT22;2304;47.606;12.186;2023-08-01T12:26:42;20.40;87.40
4584;DHT22;2304;47.606;12.186;2023-08-01T12:31:45;20.40;87.10
4584;DHT22;2304;47.606;12.186;2023-08-01T12:36:47;20.50;88.40
4584;DHT22;2304;47.606;12.186;2023-08-01T12:41:49;20.50;88.40
4584;DHT22;2304;47.606;12.186;2023-08-01T12:46:52;20.50;88.40
4584;DHT22;2304;47.606;12.186;2023-08-01T12:51:54;20.50;87.00
4584;DHT22;2304;47.606;12.186;2023-08-01T12:56:58;20.60;87.80
4584;DHT22;2304;47.606;12.186;2023-08-01T13:02:01;20.70;86.20
4584;DHT22;2304;47.606;12.186;2023-08-01T13:07:08;20.80;87.30
4584;DHT22;2304;47.606;12.186;2023-08-01T13:12:10;20.80;85.40
4584;DHT22;2304;47.606;12.186;2023-08-01T13:17:13;20.90;85.90
4584;DHT22;2304;47.606;12.186;2023-08-01T13:22:15;21.00;86.70
4584;DHT22;2304;47.606;12.186;2023-08-01T13:27:17;21.00;83.80
4584;DHT22;2304;47.606;12.186;2023-08-01T13:32:20;21.20;85.90
4584;DHT22;2304;47.606;12.186;2023-08-01T13:37:22;21.40;81.40
4584;DHT22;2304;47.606;12.186;2023-08-01T13:42:24;21.50;79.80
4584;DHT22;2304;47.606;12.186;2023-08-01T13:47:27;21.70;77.60
4584;DHT22;2304;47.606;12.186;2023-08-01T13:52:29;21.80;78.90
4584;DHT22;2304;47.606;12.186;2023-08-01T13:57:31;21.80;77.80
4584;DHT22;2304;47.606;12.186;2023-08-01T14:02:34;22.00;79.00
4584;DHT22;2304;47.606;12.186;2023-08-01T14:07:36;22.30;76.20
4584;DHT22;2304;47.606;12.186;2023-08-01T14:12:38;22.30;75.90
4584;DHT22;2304;47.606;12.186;2023-08-01T14:17:41;22.10;77.40
4584;DHT22;2304;47.606;12.186;2023-08-01T14:22:43;22.00;79.20
4584;DHT22;2304;47.606;12.186;2023-08-01T14:27:46;22.00;79.50
4584;DHT22;2304;47.606;12.186;2023-08-01T14:32:49;22.00;78.80
4584;DHT22;2304;47.606;12.186;2023-08-01T14:37:51;22.00;79.30
4584;DHT22;2304;47.606;12.186;2023-08-01T14:42:52;22.00;79.60
4584;DHT22;2304;47.606;12.186;2023-08-01T14:47:56;22.00;77.60
4584;DHT22;2304;47.606;12.186;2023-08-01T14:52:58;21.90;76.80
4584;DHT22;2304;47.606;12.186;2023-08-01T14:58:00;21.80;79.50
4584;DHT22;2304;47.606;12.186;2023-08-01T15:03:03;22.20;82.30
4584;DHT22;2304;47.606;12.186;2023-08-01T15:08:05;22.20;79.70
4584;DHT22;2304;47.606;12.186;2023-08-01T15:13:07;22.10;80.50
4584;DHT22;2304;47.606;12.186;2023-08-01T15:18:10;22.10;79.60
4584;DHT22;2304;47.606;12.186;2023-08-01T15:23:12;22.00;81.40
4584;DHT22;2304;47.606;12.186;2023-08-01T15:28:14;21.80;81.10
4584;DHT22;2304;47.606;12.186;2023-08-01T15:33:17;21.80;81.00
4584;DHT22;2304;47.606;12.186;2023-08-01T15:38:19;21.90;81.40
4584;DHT22;2304;47.606;12.186;2023-08-01T15:43:22;21.80;80.60
4584;DHT22;2304;47.606;12.186;2023-08-01T15:48:25;21.80;84.10
4584;DHT22;2304;47.606;12.186;2023-08-01T15:53:27;21.80;85.70
4584;DHT22;2304;47.606;12.186;2023-08-01T15:58:29;21.70;84.70
4584;DHT22;2304;47.606;12.186;2023-08-01T16:03:32;21.80;86.00
4584;DHT22;2304;47.606;12.186;2023-08-01T16:08:35;21.80;85.10
4584;DHT22;2304;47.606;12.186;2023-08-01T16:13:37;21.70;86.20
4584;DHT22;2304;47.606;12.186;2023-08-01T16:18:40;21.70;86.80
4584;DHT22;2304;47.606;12.186;2023-08-01T16:23:42;21.70;86.80
4584;DHT22;2304;47.606;12.186;2023-08-01T16:28:43;21.70;87.10
4584;DHT22;2304;47.606;12.186;2023-08-01T16:33:47;21.70;84.40
4584;DHT22;2304;47.606;12.186;2023-08-01T16:38:48;21.70;85.10
4584;DHT22;2304;47.606;12.186;2023-08-01T16:43:50;21.60;85.10
4584;DHT22;2304;47.606;12.186;2023-08-01T16:48:56;21.60;84.60
4584;DHT22;2304;47.606;12.186;2023-08-01T16:53:58;21.70;83.50
4584;DHT22;2304;47.606;12.186;2023-08-01T16:59:00;21.70;80.90
4584;DHT22;2304;47.606;12.186;2023-08-01T17:04:03;21.70;74.00
4584;DHT22;2304;47.606;12.186;2023-08-01T17:09:06;21.60;75.60
4584;DHT22;2304;47.606;12.186;2023-08-01T17:14:09;21.40;75.70
4584;DHT22;2304;47.606;12.186;2023-08-01T17:19:13;21.30;77.10
4584;DHT22;2304;47.606;12.186;2023-08-01T17:24:15;21.30;79.10
4584;DHT22;2304;47.606;12.186;2023-08-01T17:29:17;21.20;81.00
4584;DHT22;2304;47.606;12.186;2023-08-01T17:34:20;21.20;83.40
4584;DHT22;2304;47.606;12.186;2023-08-01T17:39:22;21.10;82.60
4584;DHT22;2304;47.606;12.186;2023-08-01T17:44:23;20.90;83.60
4584;DHT22;2304;47.606;12.186;2023-08-01T17:49:27;20.80;83.60
4584;DHT22;2304;47.606;12.186;2023-08-01T17:54:28;20.70;83.00
4584;DHT22;2304;47.606;12.186;2023-08-01T17:59:31;20.70;83.00
4584;DHT22;2304;47.606;12.186;2023-08-01T18:04:34;20.70;83.00
4584;DHT22;2304;47.606;12.186;2023-08-01T18:09:36;20.60;83.30
4584;DHT22;2304;47.606;12.186;2023-08-01T18:14:38;20.50;83.80
4584;DHT22;2304;47.606;12.186;2023-08-01T18:19:42;20.40;83.30
4584;DHT22;2304;47.606;12.186;2023-08-01T18:24:44;20.40;83.10
4584;DHT22;2304;47.606;12.186;2023-08-01T18:29:46;20.40;82.40
4584;DHT22;2304;47.606;12.186;2023-08-01T18:34:49;20.30;82.80
4584;DHT22;2304;47.606;12.186;2023-08-01T18:39:55;20.20;79.60
4584;DHT22;2304;47.606;12.186;2023-08-01T18:44:57;20.10;80.90
4584;DHT22;2304;47.606;12.186;2023-08-01T18:50:00;20.10;80.30
4584;DHT22;2304;47.606;12.186;2023-08-01T18:55:02;20.00;80.80
4584;DHT22;2304;47.606;12.186;2023-08-01T19:00:05;20.00;82.00
4584;DHT22;2304;47.606;12.186;2023-08-01T19:05:10;20.00;82.20
4584;DHT22;2304;47.606;12.186;2023-08-01T19:10:12;19.90;82.40
4584;DHT22;2304;47.606;12.186;2023-08-01T19:15:16;19.80;83.00
4584;DHT22;2304;47.606;12.186;2023-08-01T19:20:19;19.70;82.70
4584;DHT22;2304;47.606;12.186;2023-08-01T19:25:21;19.70;83.30
4584;DHT22;2304;47.606;12.186;2023-08-01T19:30:23;19.60;83.60
4584;DHT22;2304;47.606;12.186;2023-08-01T19:35:31;19.60;84.60
4584;DHT22;2304;47.606;12.186;2023-08-01T19:40:36;19.50;84.00
4584;DHT22;2304;47.606;12.186;2023-08-01T19:51:07;19.40;84.40
4584;DHT22;2304;47.606;12.186;2023-08-01T19:56:09;19.30;84.80
4584;DHT22;2304;47.606;12.186;2023-08-01T20:01:11;19.20;84.20
4584;DHT22;2304;47.606;12.186;2023-08-01T20:06:14;19.10;84.90
4584;DHT22;2304;47.606;12.186;2023-08-01T20:11:16;19.10;84.70
4584;DHT22;2304;47.606;12.186;2023-08-01T20:16:18;19.10;84.40
4584;DHT22;2304;47.606;12.186;2023-08-01T20:21:22;19.10;84.30
4584;DHT22;2304;47.606;12.186;2023-08-01T20:26:24;19.00;84.30
4584;DHT22;2304;47.606;12.186;2023-08-01T20:31:26;19.00;84.30
4584;DHT22;2304;47.606;12.186;2023-08-01T20:36:31;19.00;84.70
4584;DHT22;2304;47.606;12.186;2023-08-01T20:41:33;19.00;85.10
4584;DHT22;2304;47.606;12.186;2023-08-01T20:46:35;18.90;85.40
4584;DHT22;2304;47.606;12.186;2023-08-01T20:51:38;18.80;85.80
4584;DHT22;2304;47.606;12.186;2023-08-01T20:56:40;18.90;86.00
4584;DHT22;2304;47.606;12.186;2023-08-01T21:01:41;18.80;86.30
4584;DHT22;2304;47.606;12.186;2023-08-01T21:06:45;18.80;86.50
4584;DHT22;2304;47.606;12.186;2023-08-01T21:11:47;18.80;86.20
4584;DHT22;2304;47.606;12.186;2023-08-01T21:16:51;18.80;85.60
4584;DHT22;2304;47.606;12.186;2023-08-01T21:21:54;18.90;85.20
4584;DHT22;2304;47.606;12.186;2023-08-01T21:26:56;18.90;85.50
4584;DHT22;2304;47.606;12.186;2023-08-01T21:31:57;18.80;85.40
4584;DHT22;2304;47.606;12.186;2023-08-01T21:37:01;18.80;85.20
4584;DHT22;2304;47.606;12.186;2023-08-01T21:42:03;18.80;85.00
4584;DHT22;2304;47.606;12.186;2023-08-01T21:47:07;18.80;85.40
4584;DHT22;2304;47.606;12.186;2023-08-01T21:52:11;18.80;85.20
4584;DHT22;2304;47.606;12.186;2023-08-01T21:57:12;18.80;85.10
4584;DHT22;2304;47.606;12.186;2023-08-01T22:02:14;18.80;85.20
4584;DHT22;2304;47.606;12.186;2023-08-01T22:07:18;18.80;86.00
4584;DHT22;2304;47.606;12.186;2023-08-01T22:12:19;18.90;85.20
4584;DHT22;2304;47.606;12.186;2023-08-01T22:17:21;18.80;84.60
4584;DHT22;2304;47.606;12.186;2023-08-01T22:22:25;18.90;87.00
4584;DHT22;2304;47.606;12.186;2023-08-01T22:27:26;19.00;86.80
4584;DHT22;2304;47.606;12.186;2023-08-01T22:32:28;19.00;85.00
4584;DHT22;2304;47.606;12.186;2023-08-01T22:37:31;19.00;84.40
4584;DHT22;2304;47.606;12.186;2023-08-01T22:42:34;19.00;84.60
4584;DHT22;2304;47.606;12.186;2023-08-01T22:47:37;19.10;84.50
4584;DHT22;2304;47.606;12.186;2023-08-01T22:52:40;19.20;84.60
4584;DHT22;2304;47.606;12.186;2023-08-01T22:57:43;19.20;84.70
4584;DHT22;2304;47.606;12.186;2023-08-01T23:02:45;19.30;84.70
4584;DHT22;2304;47.606;12.186;2023-08-01T23:07:48;19.20;84.00
4584;DHT22;2304;47.606;12.186;2023-08-01T23:12:50;19.20;83.30
4584;DHT22;2304;47.606;12.186;2023-08-01T23:17:52;19.10;82.00
4584;DHT22;2304;47.606;12.186;2023-08-01T23:22:55;19.10;83.50
4584;DHT22;2304;47.606;12.186;2023-08-01T23:27:57;19.00;81.50
4584;DHT22;2304;47.606;12.186;2023-08-01T23:32:59;18.90;81.40
4584;DHT22;2304;47.606;12.186;2023-08-01T23:38:03;18.70;82.80
4584;DHT22;2304;47.606;12.186;2023-08-01T23:43:05;18.70;84.10
4584;DHT22;2304;47.606;12.186;2023-08-01T23:48:07;18.60;84.00
4584;DHT22;2304;47.606;12.186;2023-08-01T23:53:10;18.70;84.10
4584;DHT22;2304;47.606;12.186;2023-08-01T23:58:12;18.80;85.30
